Time;durP1;ratioP1;P1;durP2;ratioP2;P2;SDS_P1;SDS_P2;PMS_P1;PMS_P2;Temp;Humidity;BMP_temperature;BMP_pressure;BME280_temperature;BME280_humidity;BME280_pressure;Samples;Min_cycle;Max_cycle;Signal;HPM_P1;HPM_P2
2022/03/26 00:00:47;;;;;;;;;35.00;24.75;;;;;11.90;41.91;101877.88;5096927;27;45449;-76
2022/03/26 00:03:14;;;;;;;;;36.25;31.00;;;;;11.87;42.20;101877.88;5095493;27;45449;-76
2022/03/26 00:05:40;;;;;;;;;36.50;33.75;;;;;11.85;42.07;101878.75;5096859;27;45398;-75
2022/03/26 00:08:06;;;;;;;;;46.75;38.00;;;;;11.78;42.52;101871.72;5098602;27;46357;-79
2022/03/26 00:10:31;;;;;;;;;48.00;38.00;;;;;11.74;42.51;101884.97;5097963;27;45517;-79
2022/03/26 00:12:57;;;;;;;;;27.25;16.00;;;;;11.70;42.87;101874.41;5087960;27;45835;-80
2022/03/26 00:15:23;;;;;;;;;41.00;28.75;;;;;11.68;42.54;101886.78;5087741;27;45487;-75
2022/03/26 00:17:49;;;;;;;;;44.50;38.00;;;;;11.61;42.93;101870.03;5081803;27;45468;-75
2022/03/26 00:20:14;;;;;;;;;42.75;30.25;;;;;11.58;43.25;101877.97;5075447;27;45515;-77
2022/03/26 00:22:39;;;;;;;;;46.75;31.50;;;;;11.56;42.84;101871.81;5074635;27;45909;-76
2022/03/26 00:25:06;;;;;;;;;42.00;34.50;;;;;11.53;43.27;101875.34;5076241;27;45449;-77
2022/03/26 00:27:32;;;;;;;;;43.25;33.25;;;;;11.45;43.31;101865.66;5075652;27;46111;-77
2022/03/26 00:29:57;;;;;;;;;32.75;28.75;;;;;11.42;43.42;101869.22;5075493;27;45467;-77
2022/03/26 00:32:23;;;;;;;;;35.75;31.25;;;;;11.39;43.58;101877.16;5074746;27;45468;-76
2022/03/26 00:34:49;;;;;;;;;43.50;36.50;;;;;11.35;43.59;101878.94;5075844;27;45356;-75
2022/03/26 00:37:15;;;;;;;;;34.50;33.75;;;;;11.30;43.75;101874.56;5074879;27;45392;-75
2022/03/26 00:39:42;;;;;;;;;37.50;29.00;;;;;11.30;43.75;101879.84;5075608;27;45477;-76
2022/03/26 00:42:08;;;;;;;;;40.75;33.00;;;;;11.27;43.99;101879.84;5083097;27;45362;-75
2022/03/26 00:44:37;;;;;;;;;46.00;37.50;;;;;11.22;44.17;101876.31;5096090;27;45495;-75
2022/03/26 00:47:03;;;;;;;;;36.00;30.25;;;;;11.23;44.18;101872.78;5094732;27;46265;-76
2022/03/26 00:49:29;;;;;;;;;37.50;27.75;;;;;11.16;44.38;101878.09;5095946;27;45388;-76
2022/03/26 00:51:54;;;;;;;;;47.75;35.50;;;;;11.14;44.38;101876.34;5084433;27;45489;-75
2022/03/26 00:54:19;;;;;;;;;41.50;38.50;;;;;11.12;44.26;101881.63;5074870;27;45348;-74
2022/03/26 00:56:45;;;;;;;;;37.25;31.00;;;;;11.11;44.31;101874.56;5072987;27;46369;-76
2022/03/26 00:59:10;;;;;;;;;38.75;32.50;;;;;11.12;44.24;101883.41;5074891;27;45431;-75
2022/03/26 01:01:36;;;;;;;;;34.00;30.50;;;;;11.04;44.55;101862.25;5073127;27;45461;-75
2022/03/26 01:04:02;;;;;;;;;39.00;27.75;;;;;11.07;44.52;101870.19;5074981;27;45372;-74
2022/03/26 01:06:29;;;;;;;;;30.50;29.50;;;;;11.07;44.38;101872.81;5074661;27;46524;-75
2022/03/26 01:08:55;;;;;;;;;36.50;28.75;;;;;10.98;44.45;101856.97;5074778;28;45447;-77
2022/03/26 01:11:21;;;;;;;;;37.00;31.25;;;;;11.02;44.66;101864.91;5074174;27;45415;-76
2022/03/26 01:13:49;;;;;;;;;48.25;33.75;;;;;10.99;44.87;101871.94;5087213;27;45424;-75
2022/03/26 01:16:15;;;;;;;;;21.00;18.00;;;;;10.91;44.78;101860.50;5095648;27;45376;-76
2022/03/26 01:18:42;;;;;;;;;41.75;36.00;;;;;10.94;44.69;101868.44;5095477;27;45349;-76
2022/03/26 01:21:08;;;;;;;;;46.00;37.50;;;;;10.94;44.55;101871.06;5094593;27;45421;-76
2022/03/26 01:23:34;;;;;;;;;40.75;30.50;;;;;10.90;44.91;101870.22;5096791;27;45302;-76
2022/03/26 01:26:02;;;;;;;;;42.75;29.75;;;;;10.88;45.25;101863.16;5096304;27;45488;-76
2022/03/26 01:28:29;;;;;;;;;42.00;30.75;;;;;10.82;45.20;101862.25;5095149;27;45440;-76
2022/03/26 01:30:57;;;;;;;;;38.75;31.00;;;;;10.81;45.03;101860.50;5095559;27;45406;-76
2022/03/26 01:33:22;;;;;;;;;44.75;38.75;;;;;10.80;45.25;101863.16;5093425;27;45509;-76
2022/03/26 01:35:48;;;;;;;;;32.75;27.75;;;;;10.73;45.21;101856.09;5088268;27;46568;-76
2022/03/26 01:38:13;;;;;;;;;36.75;32.50;;;;;10.73;45.73;101856.09;5072676;28;45420;-76
2022/03/26 01:40:39;;;;;;;;;38.00;26.00;;;;;10.71;45.72;101856.09;5075022;28;45489;-76
2022/03/26 01:43:06;;;;;;;;;42.50;34.25;;;;;10.64;45.23;101843.75;5074174;27;45387;-76
2022/03/26 01:45:32;;;;;;;;;31.50;28.50;;;;;10.66;45.79;101849.94;5074461;27;46242;-74
2022/03/26 01:47:58;;;;;;;;;30.00;21.75;;;;;10.65;45.77;101849.03;5074337;27;45469;-75
2022/03/26 01:50:25;;;;;;;;;45.00;37.00;;;;;10.62;45.54;101846.41;5074466;27;45380;-76
2022/03/26 01:52:51;;;;;;;;;45.50;33.25;;;;;10.58;45.97;101851.69;5074821;27;45260;-76
2022/03/26 01:55:18;;;;;;;;;38.75;31.75;;;;;10.56;45.79;101850.81;5074029;27;46904;-76
2022/03/26 01:57:44;;;;;;;;;35.50;32.25;;;;;10.54;45.86;101842.88;5071970;27;45532;-76
2022/03/26 02:00:11;;;;;;;;;22.00;19.00;;;;;10.47;45.96;101838.47;5073369;27;45505;-76
2022/03/26 02:02:43;;;;;;;;;43.50;31.50;;;;;10.51;46.19;101842.88;5073652;27;45497;-75
2022/03/26 02:05:12;;;;;;;;;37.00;34.00;;;;;10.41;46.20;101834.03;5089446;27;45518;-74
2022/03/26 02:07:43;;;;;;;;;32.50;24.00;;;;;10.42;46.36;101835.81;5097253;27;45276;-76
2022/03/26 02:10:10;;;;;;;;;36.50;30.00;;;;;10.40;46.75;101836.69;5098813;27;45349;-76
2022/03/26 02:12:36;;;;;;;;;43.25;37.00;;;;;10.37;46.31;101837.59;5097860;27;45413;-76
2022/03/26 02:15:03;;;;;;;;;43.75;32.00;;;;;10.33;46.34;101843.75;5079979;27;45408;-75
2022/03/26 02:17:28;;;;;;;;;42.50;39.00;;;;;10.29;47.07;101839.28;5077753;27;45401;-75
2022/03/26 02:19:55;;;;;;;;;38.50;33.50;;;;;10.27;46.84;101836.66;5077510;27;45374;-76
2022/03/26 02:22:22;;;;;;;;;31.00;24.50;;;;;10.25;46.81;101834.91;5074970;27;45452;-76
2022/03/26 02:24:49;;;;;;;;;40.50;33.50;;;;;10.23;46.79;101837.53;5077635;27;45369;-75
2022/03/26 02:27:16;;;;;;;;;44.50;36.50;;;;;10.22;46.95;101848.09;5077232;27;45424;-75
2022/03/26 02:29:41;;;;;;;;;36.00;30.25;;;;;10.18;46.92;101836.63;5081372;27;45534;-75
2022/03/26 02:32:07;;;;;;;;;30.50;24.00;;;;;10.16;46.67;101837.50;5077198;27;45423;-76
2022/03/26 02:34:33;;;;;;;;;36.25;30.50;;;;;10.13;47.09;101839.28;5077931;27;45640;-75
2022/03/26 02:37:00;;;;;;;;;36.50;32.50;;;;;10.13;46.75;101834.00;5076602;27;45514;-74
2022/03/26 02:39:26;;;;;;;;;38.00;30.50;;;;;10.10;46.75;101836.63;5086101;27;45459;-75
2022/03/26 02:41:52;;;;;;;;;31.50;27.50;;;;;10.10;47.33;101830.47;5078458;27;45390;-75
2022/03/26 02:44:17;;;;;;;;;45.50;37.00;;;;;10.07;46.79;101827.81;5089037;27;46934;-75
2022/03/26 02:46:45;;;;;;;;;40.00;30.75;;;;;10.06;46.57;101828.69;5077253;27;45464;-76
2022/03/26 02:49:15;;;;;;;;;49.25;37.25;;;;;10.09;47.38;101824.28;5080818;27;45479;-75
2022/03/26 02:51:41;;;;;;;;;35.50;26.75;;;;;10.05;47.30;101825.19;5097676;27;45438;-76
2022/03/26 02:54:18;;;;;;;;;31.50;26.50;;;;;10.04;47.61;101825.19;5078162;27;46526;-76
2022/03/26 02:56:45;;;;;;;;;41.75;34.25;;;;;10.00;47.38;101820.75;5075494;27;45532;-75
2022/03/26 02:59:10;;;;;;;;;38.75;28.50;;;;;10.02;47.40;101826.91;5082130;27;45379;-75
2022/03/26 03:01:35;;;;;;;;;39.50;30.00;;;;;10.00;47.03;101826.03;5097731;27;45348;-76
2022/03/26 03:04:00;;;;;;;;;46.50;32.00;;;;;9.93;47.08;101825.16;5095373;27;45424;-76
2022/03/26 03:06:26;;;;;;;;;36.50;29.00;;;;;9.94;47.16;101821.63;5097106;27;45451;-76
2022/03/26 03:08:51;;;;;;;;;30.75;28.00;;;;;9.91;47.54;101832.19;5093665;27;45728;-75
2022/03/26 03:11:17;;;;;;;;;36.00;27.75;;;;;9.90;47.72;101826.03;5090492;27;45567;-76
2022/03/26 03:13:42;;;;;;;;;36.25;29.50;;;;;9.85;47.30;101817.19;5097063;27;46867;-76
2022/03/26 03:16:08;;;;;;;;;36.50;27.00;;;;;9.86;47.38;101826.00;5095627;27;45594;-76
2022/03/26 03:18:33;;;;;;;;;39.25;31.25;;;;;9.81;47.22;101819.81;5083760;27;45410;-76
2022/03/26 03:20:58;;;;;;;;;31.75;24.50;;;;;9.75;47.96;101818.94;5076683;27;45485;-76
2022/03/26 03:23:25;;;;;;;;;37.50;28.75;;;;;9.71;47.87;101814.50;5076261;27;47020;-76
2022/03/26 03:25:50;;;;;;;;;34.00;31.75;;;;;9.71;48.14;101830.34;5076544;27;45408;-76
2022/03/26 03:28:15;;;;;;;;;35.50;33.75;;;;;9.63;47.62;101820.66;5076866;27;45382;-76
2022/03/26 03:30:41;;;;;;;;;41.75;35.00;;;;;9.60;48.29;101811.84;5091137;27;45616;-76
2022/03/26 03:33:07;;;;;;;;;34.75;26.25;;;;;9.67;48.19;101830.34;5086906;27;46201;-75
2022/03/26 03:35:33;;;;;;;;;47.75;34.50;;;;;9.62;48.57;101825.03;5076647;27;45566;-77
2022/03/26 03:37:59;;;;;;;;;26.00;19.00;;;;;9.64;47.81;101832.97;5075949;27;45452;-76
2022/03/26 03:40:24;;;;;;;;;33.75;29.75;;;;;9.60;48.54;101827.69;5076969;27;45617;-75
2022/03/26 03:42:49;;;;;;;;;38.75;28.00;;;;;9.59;48.33;101820.63;5075392;27;46244;-76
2022/03/26 03:45:15;;;;;;;;;45.25;34.50;;;;;9.57;48.50;101821.50;5076192;27;45372;-75
2022/03/26 03:47:40;;;;;;;;;40.00;32.75;;;;;9.58;48.07;101825.91;5082199;27;45566;-76
2022/03/26 03:50:06;;;;;;;;;28.50;24.50;;;;;9.57;47.67;101821.50;5076182;27;45390;-75
2022/03/26 03:52:31;;;;;;;;;43.50;38.75;;;;;9.56;48.23;101827.66;5091052;27;46341;-76
2022/03/26 03:54:57;;;;;;;;;52.00;42.50;;;;;9.56;48.67;101827.66;5096281;27;45419;-76
2022/03/26 03:57:22;;;;;;;;;51.00;41.75;;;;;9.49;47.68;101820.59;5096629;27;45428;-75
2022/03/26 03:59:48;;;;;;;;;45.75;38.00;;;;;9.55;47.98;101836.44;5097230;27;45377;-75
2022/03/26 04:02:13;;;;;;;;;45.00;37.75;;;;;9.49;48.34;101823.22;5081122;27;46552;-76
2022/03/26 04:04:41;;;;;;;;;50.50;36.75;;;;;9.53;48.46;101835.56;5074716;27;45518;-75
2022/03/26 04:07:10;;;;;;;;;64.00;48.25;;;;;9.49;48.66;101837.31;5075353;27;45384;-75
2022/03/26 04:09:37;;;;;;;;;46.00;37.75;;;;;9.50;48.12;101841.69;5076223;27;45564;-76
2022/03/26 04:12:03;;;;;;;;;49.75;44.75;;;;;9.48;48.58;101842.59;5086599;27;45502;-75
2022/03/26 04:14:30;;;;;;;;;53.25;39.50;;;;;9.46;48.47;101844.31;5094982;27;45399;-76
2022/03/26 04:16:55;;;;;;;;;48.00;36.25;;;;;9.45;49.17;101837.31;5096751;27;45286;-75
2022/03/26 04:19:21;;;;;;;;;43.75;36.50;;;;;9.46;48.23;101847.88;5095340;27;45412;-76
2022/03/26 04:21:46;;;;;;;;;44.00;34.75;;;;;9.48;48.41;101835.53;5086273;27;45456;-76
2022/03/26 04:24:12;;;;;;;;;42.75;37.25;;;;;9.47;48.52;101835.53;5075844;27;45316;-75
2022/03/26 04:26:39;;;;;;;;;43.25;42.25;;;;;9.47;48.01;101835.53;5075428;27;45533;-76
2022/03/26 04:29:04;;;;;;;;;55.75;43.50;;;;;9.44;48.62;101836.41;5074963;27;45340;-74
2022/03/26 04:31:29;;;;;;;;;46.75;41.25;;;;;9.42;49.20;101844.31;5075443;27;45395;-75
2022/03/26 04:33:55;;;;;;;;;43.50;36.50;;;;;9.41;48.92;101839.03;5075761;27;45425;-77
2022/03/26 04:36:20;;;;;;;;;49.50;43.00;;;;;9.41;48.49;101845.22;5074532;27;45406;-75
2022/03/26 04:38:47;;;;;;;;;55.50;43.75;;;;;9.39;49.21;101846.94;5074334;27;45334;-76
2022/03/26 04:41:13;;;;;;;;;43.25;34.75;;;;;9.35;48.35;101841.63;5074852;27;45394;-75
2022/03/26 04:43:39;;;;;;;;;44.00;36.75;;;;;9.33;48.84;101854.81;5075474;27;45724;-74
2022/03/26 04:46:05;;;;;;;;;55.25;45.50;;;;;9.31;48.56;101848.66;5075590;27;45554;-76
2022/03/26 04:48:31;;;;;;;;;52.00;43.75;;;;;9.31;49.18;101851.31;5073935;27;45516;-76
2022/03/26 04:50:56;;;;;;;;;39.00;31.50;;;;;9.30;48.91;101853.94;5074565;27;47202;-75
2022/03/26 04:53:21;;;;;;;;;34.50;30.00;;;;;9.27;48.58;101841.59;5074511;27;45454;-76
2022/03/26 04:55:47;;;;;;;;;49.50;35.50;;;;;9.21;48.91;101839.78;5075118;27;45283;-75
2022/03/26 04:58:12;;;;;;;;;37.50;30.00;;;;;9.22;49.08;101845.97;5075948;27;45212;-76
2022/03/26 05:00:38;;;;;;;;;41.50;33.50;;;;;9.12;48.88;101828.31;5075389;27;46579;-77
2022/03/26 05:03:03;;;;;;;;;39.75;31.00;;;;;9.19;49.26;101845.97;5074590;27;45512;-76
2022/03/26 05:05:28;;;;;;;;;36.50;33.50;;;;;9.15;49.09;101844.16;5086796;27;45475;-75
2022/03/26 05:07:55;;;;;;;;;34.50;27.50;;;;;9.16;48.50;101843.31;5077198;27;45461;-75
2022/03/26 05:10:28;;;;;;;;;28.50;24.50;;;;;9.12;49.26;101852.06;5074966;27;47052;-76
2022/03/26 05:12:54;;;;;;;;;37.00;26.50;;;;;9.09;48.97;101852.91;5074690;27;45434;-74
2022/03/26 05:15:21;;;;;;;;;31.25;29.75;;;;;9.01;49.74;101839.69;5075523;27;45381;-76
2022/03/26 05:17:47;;;;;;;;;37.25;27.50;;;;;9.05;49.27;101852.03;5074569;27;45394;-76
2022/03/26 05:20:13;;;;;;;;;29.50;25.00;;;;;9.01;49.91;101852.88;5074914;27;46236;-75
2022/03/26 05:22:47;;;;;;;;;46.25;33.75;;;;;9.01;50.04;101855.50;5075851;27;45343;-75
2022/03/26 05:25:14;;;;;;;;;30.50;25.50;;;;;8.96;49.85;101859.88;5075466;27;45348;-77
2022/03/26 05:27:44;;;;;;;;;34.25;27.50;;;;;8.96;49.70;101861.63;5074383;27;45391;-76
2022/03/26 05:30:10;;;;;;;;;36.75;29.00;;;;;8.89;49.98;101858.06;5074596;27;45461;-75
2022/03/26 05:32:35;;;;;;;;;36.00;28.00;;;;;8.85;50.21;101857.16;5073394;27;45497;-75
2022/03/26 05:35:01;;;;;;;;;33.25;29.75;;;;;8.86;49.58;101858.91;5080258;27;45687;-75
2022/03/26 05:37:26;;;;;;;;;32.75;28.50;;;;;8.83;50.17;101858.03;5085634;27;45602;-74
2022/03/26 05:39:51;;;;;;;;;38.50;27.50;;;;;8.80;50.33;101858.88;5074807;27;45408;-75
2022/03/26 05:42:18;;;;;;;;;34.00;30.00;;;;;8.83;49.80;101869.44;5077446;27;45389;-75
2022/03/26 05:44:43;;;;;;;;;38.00;29.75;;;;;8.79;49.82;101861.50;5078048;27;45421;-76
2022/03/26 05:47:09;;;;;;;;;33.75;29.75;;;;;8.83;50.01;101873.84;5077958;27;45477;-75
2022/03/26 05:49:34;;;;;;;;;28.25;20.00;;;;;8.83;50.25;101879.09;5079578;27;46405;-77
2022/03/26 05:51:59;;;;;;;;;31.25;20.00;;;;;8.91;50.37;101876.53;5078730;27;45328;-76
2022/03/26 05:54:25;;;;;;;;;33.75;29.75;;;;;9.00;49.92;101888.03;5077497;27;45341;-75
2022/03/26 05:56:53;;;;;;;;;31.75;25.75;;;;;9.13;49.25;101880.22;5075691;27;45781;-75
2022/03/26 05:59:21;;;;;;;;;34.00;27.75;;;;;9.26;49.46;101884.66;5076706;28;46013;-75
2022/03/26 06:01:47;;;;;;;;;33.25;27.00;;;;;9.43;49.33;101890.94;5077910;27;45574;-76
2022/03/26 06:04:13;;;;;;;;;42.50;34.25;;;;;9.67;48.35;101886.69;5079510;28;45373;-78
2022/03/26 06:06:40;;;;;;;;;34.50;30.00;;;;;9.94;47.93;101885.91;5076283;27;45611;-76
2022/03/26 06:09:05;;;;;;;;;38.00;29.00;;;;;10.21;46.89;101883.34;5077286;27;45480;-75
2022/03/26 06:11:30;;;;;;;;;31.50;27.25;;;;;10.49;45.07;101879.88;5073900;27;45466;-76
2022/03/26 06:13:56;;;;;;;;;51.25;39.00;;;;;10.78;45.54;101876.38;5077242;27;45360;-76
2022/03/26 06:16:22;;;;;;;;;46.00;37.50;;;;;11.04;45.08;101878.13;5084925;27;45606;-77
2022/03/26 06:18:47;;;;;;;;;49.00;39.00;;;;;11.43;44.16;101884.19;5078100;27;46109;-76
2022/03/26 06:21:13;;;;;;;;;47.25;34.75;;;;;11.84;43.29;101885.84;5062280;27;51956;-75
2022/03/26 06:23:38;;;;;;;;;45.50;40.00;;;;;12.27;42.39;101877.69;5081449;27;45472;-75
2022/03/26 06:26:03;;;;;;;;;45.00;39.75;;;;;12.72;40.80;101887.97;5077266;27;45528;-73
2022/03/26 06:28:29;;;;;;;;;47.50;43.00;;;;;13.13;41.78;101897.34;5076980;27;46424;-78
2022/03/26 06:30:54;;;;;;;;;44.25;36.75;;;;;13.55;40.20;101890.75;5077270;27;45371;-75
2022/03/26 06:33:19;;;;;;;;;30.75;26.75;;;;;13.81;38.82;101903.69;5077438;27;45421;-76
2022/03/26 06:35:47;;;;;;;;;51.25;42.00;;;;;14.17;38.37;101896.16;5077383;27;45527;-76
2022/03/26 06:38:12;;;;;;;;;55.00;45.25;;;;;14.63;37.53;101891.94;5076284;27;46947;-74
2022/03/26 06:40:39;;;;;;;;;53.50;43.00;;;;;14.93;36.76;101883.44;5080635;27;45413;-76
2022/03/26 06:43:05;;;;;;;;;58.00;46.25;;;;;15.22;35.90;101894.47;5076247;27;45413;-75
2022/03/26 06:45:31;;;;;;;;;56.75;40.00;;;;;15.56;36.18;101896.47;5076130;27;45432;-75
2022/03/26 06:47:57;;;;;;;;;36.00;32.00;;;;;15.89;35.05;101881.59;5074372;28;45472;-74
2022/03/26 06:50:23;;;;;;;;;57.00;44.75;;;;;16.27;34.63;101893.22;5077473;27;45640;-76
2022/03/26 06:52:48;;;;;;;;;59.25;44.50;;;;;16.47;33.99;101903.44;5074117;27;45429;-75
2022/03/26 06:55:14;;;;;;;;;51.25;41.00;;;;;16.76;33.90;101908.97;5076609;27;45490;-77
2022/03/26 06:57:41;;;;;;;;;54.50;43.75;;;;;17.01;33.11;101904.78;5076261;28;46088;-75
2022/03/26 07:00:09;;;;;;;;;51.00;43.00;;;;;17.50;32.54;101913.28;5076482;27;45492;-75
2022/03/26 07:02:37;;;;;;;;;52.00;42.25;;;;;17.85;31.94;101908.72;5079473;27;45398;-81
2022/03/26 07:05:04;;;;;;;;;56.75;43.50;;;;;17.99;31.56;101915.50;5076452;27;45443;-80
2022/03/26 07:07:30;;;;;;;;;52.25;41.00;;;;;18.22;30.93;101914.78;5079570;27;45463;-81
2022/03/26 07:09:57;;;;;;;;;53.25;42.25;;;;;18.43;30.93;101910.56;5076217;27;45507;-76
2022/03/26 07:12:23;;;;;;;;;50.00;42.75;;;;;18.67;30.70;101919.59;5075394;27;45468;-77
2022/03/26 07:14:48;;;;;;;;;58.50;42.50;;;;;19.12;30.17;101915.47;5075260;27;45382;-77
2022/03/26 07:17:16;;;;;;;;;60.00;45.00;;;;;19.27;29.04;101912.25;5075255;28;45383;-76
2022/03/26 07:19:41;;;;;;;;;56.75;42.50;;;;;19.48;29.00;101925.78;5074975;27;45324;-76
2022/03/26 07:22:07;;;;;;;;;47.25;40.00;;;;;19.74;29.01;101921.28;5077035;27;45382;-74
2022/03/26 07:24:32;;;;;;;;;56.75;42.50;;;;;19.97;28.51;101921.34;5075239;27;45527;-76
2022/03/26 07:26:58;;;;;;;;;50.00;40.75;;;;;20.24;28.18;101930.13;5075388;27;46337;-75
2022/03/26 07:29:23;;;;;;;;;49.00;37.25;;;;;20.06;27.97;101925.47;5075881;28;45744;-76
2022/03/26 07:31:49;;;;;;;;;58.50;41.75;;;;;20.02;28.03;101927.38;5075274;27;45698;-76
2022/03/26 07:34:16;;;;;;;;;55.25;41.50;;;;;20.42;27.74;101928.53;5079615;27;45432;-74
2022/03/26 07:36:41;;;;;;;;;48.75;42.50;;;;;20.54;27.19;101937.00;5073406;27;47028;-74
2022/03/26 07:39:07;;;;;;;;;39.50;33.50;;;;;20.76;27.06;101937.91;5075568;27;45493;-75
2022/03/26 07:41:32;;;;;;;;;40.00;31.75;;;;;20.84;26.84;101945.66;5076377;27;45422;-76
2022/03/26 07:43:58;;;;;;;;;53.50;41.75;;;;;21.16;26.74;101937.19;5075086;27;45488;-76
2022/03/26 07:46:23;;;;;;;;;47.50;39.25;;;;;21.22;26.17;101943.16;5074641;27;45801;-75
2022/03/26 07:48:49;;;;;;;;;37.50;36.00;;;;;21.40;25.92;101941.47;5075434;27;45615;-75
2022/03/26 07:51:14;;;;;;;;;37.50;37.00;;;;;21.69;25.21;101941.16;5073650;27;45500;-77
2022/03/26 07:53:39;;;;;;;;;54.00;41.75;;;;;21.95;25.55;101945.34;5076359;27;45385;-77
2022/03/26 07:56:05;;;;;;;;;49.00;38.75;;;;;22.20;25.15;101931.59;5073853;27;46308;-76
2022/03/26 07:58:32;;;;;;;;;45.75;37.00;;;;;22.41;24.60;101943.22;5077514;27;45442;-76
2022/03/26 08:00:57;;;;;;;;;41.25;38.25;;;;;22.49;24.92;101927.53;5076054;27;45537;-76
2022/03/26 08:03:24;;;;;;;;;40.00;37.25;;;;;22.92;23.91;101937.97;5075620;28;45475;-76
2022/03/26 08:05:50;;;;;;;;;49.00;39.00;;;;;23.13;23.52;101938.75;5074141;27;46292;-76
2022/03/26 08:08:15;;;;;;;;;43.00;39.75;;;;;23.35;23.51;101930.41;5075779;27;45537;-76
2022/03/26 08:10:41;;;;;;;;;47.50;40.75;;;;;23.63;22.98;101934.34;5077185;27;45650;-75
2022/03/26 08:13:06;;;;;;;;;41.00;37.00;;;;;23.69;22.83;101933.16;5076575;27;45540;-74
2022/03/26 08:15:31;;;;;;;;;47.25;40.25;;;;;23.82;23.04;101936.88;5074063;27;46237;-76
2022/03/26 08:17:59;;;;;;;;;49.50;41.25;;;;;23.93;22.66;101929.13;5062712;27;45337;-76
2022/03/26 08:20:26;;;;;;;;;47.75;39.25;;;;;24.17;22.17;101934.09;5074767;27;45354;-76
2022/03/26 08:22:52;;;;;;;;;50.75;41.75;;;;;24.53;21.56;101940.22;5072848;27;45421;-76
2022/03/26 08:26:19;;;;;;;;;47.50;40.50;;;;;24.77;22.42;101944.22;5074719;27;45999;-76
2022/03/26 08:28:11;;;;;;;;;45.75;38.00;;;;;25.16;21.27;101940.13;5075428;28;45367;-76
2022/03/26 08:30:38;;;;;;;;;51.25;40.25;;;;;25.34;20.99;101938.16;5074650;27;45734;-77
2022/03/26 08:33:04;;;;;;;;;50.25;40.00;;;;;25.52;21.00;101936.16;5074461;27;45453;-76
2022/03/26 08:35:40;;;;;;;;;45.75;38.50;;;;;25.39;20.44;101939.69;5073080;27;45425;-75
2022/03/26 08:38:07;;;;;;;;;55.00;40.75;;;;;25.33;21.02;101944.53;5074761;27;45546;-75
2022/03/26 08:40:33;;;;;;;;;43.75;37.50;;;;;25.41;21.14;101948.59;5073434;28;45560;-75
2022/03/26 08:43:00;;;;;;;;;45.75;39.00;;;;;25.13;20.79;101939.44;5075054;27;45393;-80
2022/03/26 08:45:26;;;;;;;;;35.25;28.50;;;;;25.19;21.19;101941.78;5074154;28;46212;-75
2022/03/26 08:47:52;;;;;;;;;45.00;37.50;;;;;25.26;19.89;101940.41;5072245;27;45506;-75
2022/03/26 08:50:17;;;;;;;;;55.25;42.25;;;;;25.01;20.40;101938.34;5075058;27;45481;-75
2022/03/26 08:52:43;;;;;;;;;21.25;20.50;;;;;25.34;20.54;101935.47;5074104;27;45522;-74
2022/03/26 08:55:08;;;;;;;;;53.00;35.75;;;;;25.43;20.25;101946.66;5073795;27;46272;-73
2022/03/26 08:57:34;;;;;;;;;42.00;36.00;;;;;25.10;20.22;101936.88;5074195;27;45417;-76
2022/03/26 08:59:59;;;;;;;;;48.75;37.25;;;;;24.82;20.67;101952.06;5074566;28;45553;-74
2022/03/26 09:02:25;;;;;;;;;47.00;36.75;;;;;25.37;20.22;101942.50;5073391;27;45432;-75
2022/03/26 09:04:50;;;;;;;;;39.75;34.25;;;;;25.71;20.52;101946.69;5073911;28;45526;-74
2022/03/26 09:07:16;;;;;;;;;36.50;34.75;;;;;26.03;20.01;101951.94;5072075;27;45511;-74
2022/03/26 09:09:41;;;;;;;;;42.50;36.50;;;;;26.30;19.40;101943.00;5073050;27;46045;-75
2022/03/26 09:12:08;;;;;;;;;45.75;37.25;;;;;26.39;19.68;101942.41;5073597;27;45531;-76
2022/03/26 09:14:33;;;;;;;;;49.25;37.50;;;;;26.57;19.15;101944.84;5073348;27;45567;-74
2022/03/26 09:16:59;;;;;;;;;41.75;37.50;;;;;26.40;19.44;101936.03;5073223;27;45285;-75
2022/03/26 09:19:24;;;;;;;;;40.75;37.50;;;;;26.11;19.11;101940.59;5072035;27;45389;-74
2022/03/26 09:21:50;;;;;;;;;34.00;30.50;;;;;26.11;19.71;101937.91;5073003;27;45527;-75
2022/03/26 09:24:16;;;;;;;;;50.00;38.75;;;;;26.25;19.42;101939.72;5073282;27;45359;-75
2022/03/26 09:26:43;;;;;;;;;37.75;34.75;;;;;26.45;19.15;101932.13;5073771;27;45340;-76
2022/03/26 09:29:08;;;;;;;;;44.00;38.00;;;;;26.67;19.22;101937.88;5071908;27;45448;-75
2022/03/26 09:31:33;;;;;;;;;43.50;35.50;;;;;26.97;18.85;101935.94;5073014;27;45488;-75
2022/03/26 09:33:59;;;;;;;;;35.00;31.00;;;;;27.35;19.87;101933.31;5073302;28;45452;-75
2022/03/26 09:36:24;;;;;;;;;47.00;36.50;;;;;27.75;18.69;101927.75;5072785;27;45453;-75
2022/03/26 09:38:49;;;;;;;;;39.00;33.00;;;;;27.86;18.17;101928.81;5077049;27;45954;-74
2022/03/26 09:41:16;;;;;;;;;37.00;34.75;;;;;27.75;18.68;101932.31;5073614;27;45559;-74
2022/03/26 09:43:42;;;;;;;;;45.25;39.25;;;;;27.94;18.19;101932.72;5073258;27;45582;-74
2022/03/26 09:46:08;;;;;;;;;34.50;25.50;;;;;27.89;18.22;101924.03;5073351;27;45543;-75
2022/03/26 09:48:33;;;;;;;;;42.00;37.00;;;;;28.02;18.39;101925.91;5072857;27;45458;-74
2022/03/26 09:51:01;;;;;;;;;40.00;34.00;;;;;28.05;18.04;101925.69;5072038;27;45606;-76
2022/03/26 09:53:27;;;;;;;;;31.75;27.25;;;;;28.00;18.07;101931.47;5073856;27;45598;-74
2022/03/26 09:55:53;;;;;;;;;36.00;29.50;;;;;28.02;17.93;101917.75;5072735;27;45579;-74
2022/03/26 09:58:18;;;;;;;;;41.50;35.25;;;;;27.98;18.00;101933.41;5073533;27;45547;-74
2022/03/26 10:00:45;;;;;;;;;48.50;39.50;;;;;28.00;17.79;101926.03;5073994;27;45653;-80
2022/03/26 10:03:11;;;;;;;;;42.50;38.25;;;;;28.29;18.05;101929.31;5072050;27;45495;-75
2022/03/26 10:05:37;;;;;;;;;24.50;21.75;;;;;28.27;17.50;101927.66;5073224;27;45408;-73
2022/03/26 10:08:38;;;;;;;;;33.50;30.50;;;;;28.08;17.66;101920.88;5071803;27;45888;-75
2022/03/26 10:11:06;;;;;;;;;50.25;40.00;;;;;28.27;17.84;101919.53;5009379;28;45679;-78
2022/03/26 10:13:37;;;;;;;;;36.00;30.25;;;;;28.37;17.87;101928.72;5011104;28;45494;-74
2022/03/26 10:16:15;;;;;;;;;40.00;35.75;;;;;28.30;17.53;101917.47;5009393;28;45466;-74
2022/03/26 10:18:45;;;;;;;;;45.75;34.00;;;;;28.46;18.18;101921.75;5010278;28;45522;-75
2022/03/26 10:21:13;;;;;;;;;38.25;33.75;;;;;28.51;17.97;101919.53;5012168;28;45448;-75
2022/03/26 10:23:50;;;;;;;;;55.00;40.25;;;;;27.94;17.70;101921.00;5009883;28;45474;-75
2022/03/26 10:26:21;;;;;;;;;45.25;41.25;;;;;27.02;17.92;101931.91;5010432;28;45728;-74
2022/03/26 10:28:53;;;;;;;;;49.50;41.00;;;;;27.17;18.63;101921.00;5016943;28;45397;-74
2022/03/26 10:34:08;;;;;;;;;47.75;40.00;;;;;27.58;18.88;101920.81;5013259;28;45755;-75
2022/03/26 10:36:44;;;;;;;;;49.75;43.25;;;;;27.66;18.39;101914.84;5012798;28;45374;-74
2022/03/26 10:39:16;;;;;;;;;52.00;37.75;;;;;27.92;18.70;101915.69;5011697;28;45804;-74
2022/03/26 10:41:42;;;;;;;;;43.50;35.25;;;;;27.80;17.92;101913.84;5013730;28;45592;-73
2022/03/26 10:44:10;;;;;;;;;37.75;32.75;;;;;27.30;18.07;101916.44;5012941;28;45628;-74
2022/03/26 10:46:44;;;;;;;;;41.25;36.50;;;;;27.26;18.08;101915.78;5043566;27;45563;-74
2022/03/26 10:49:11;;;;;;;;;53.75;42.50;;;;;26.88;18.22;101915.72;5085207;27;45638;-74
2022/03/26 10:51:38;;;;;;;;;55.00;41.00;;;;;26.25;18.94;101928.88;5075363;28;45732;-77
2022/03/26 10:54:11;;;;;;;;;48.00;39.00;;;;;25.28;19.23;101910.56;5073288;27;45554;-81
2022/03/26 10:56:38;;;;;;;;;50.75;41.50;;;;;25.69;19.65;101909.84;5067892;27;45486;-79
2022/03/26 10:59:04;;;;;;;;;57.25;42.00;;;;;26.06;19.14;101904.84;5080649;27;45590;-80
2022/03/26 11:01:30;;;;;;;;;49.75;41.00;;;;;26.44;18.95;101903.31;5076542;27;45309;-75
2022/03/26 11:03:56;;;;;;;;;56.75;42.00;;;;;26.45;18.61;101905.91;5073597;27;46574;-76
2022/03/26 11:06:28;;;;;;;;;45.50;36.50;;;;;26.56;18.64;101899.75;5078844;27;45334;-76
2022/03/26 11:09:01;;;;;;;;;36.25;32.00;;;;;26.33;18.78;101926.56;5074118;27;45609;-79
2022/03/26 11:11:27;;;;;;;;;42.75;36.75;;;;;26.20;19.33;101909.34;5076110;27;45534;-77